Bonduel, Wisconsin
Current Conditions -  °F | °C
As of 5:15 PM on Wednesday 26 Nov 2014 (Local Time) from KEZS Reporting Station
Overcast Overcast  
Wind Chill: 23°   Ceiling: 9000
Heat Index: 23°   Visibility: 10mi
Dew Point: 19°   Wind: 0mph
Humidity: 84%   Direction: NA
Pressure: 30.17"   Gusts: NA
Location:  44.74°N, 88.44°W
Report Text: KEZS 262315Z AUTO 00000KT 10SM OVC090 M05/M07 A3017 RMK AO2 T10501073
Loading
Personal Weather Stations






























Interactive Weather Map New forecast layout! Learn more

10-Day Weather Forecast

Advertisements
Track Severe Weather on mobile